sensor_id;sensor_type;location;lat;lon;timestamp;temperature;humidity
52030;DHT22;38043;53.224;6.580;2023-05-10T00:01:52;13.30;99.90
52030;DHT22;38043;53.224;6.580;2023-05-10T00:04:18;13.30;99.90
52030;DHT22;38043;53.224;6.580;2023-05-10T00:06:43;13.20;99.90
52030;DHT22;38043;53.224;6.580;2023-05-10T00:09:09;13.10;99.90
52030;DHT22;38043;53.224;6.580;2023-05-10T00:11:34;13.20;99.90
52030;DHT22;38043;53.224;6.580;2023-05-10T00:14:00;13.10;99.90
52030;DHT22;38043;53.224;6.580;2023-05-10T00:16:25;13.10;99.90
52030;DHT22;38043;53.224;6.580;2023-05-10T00:18:51;13.10;99.90
52030;DHT22;38043;53.224;6.580;2023-05-10T00:21:16;13.00;99.90
52030;DHT22;38043;53.224;6.580;2023-05-10T00:23:42;13.00;99.90
52030;DHT22;38043;53.224;6.580;2023-05-10T00:26:07;13.00;99.90
52030;DHT22;38043;53.224;6.580;2023-05-10T00:28:33;13.00;99.90
52030;DHT22;38043;53.224;6.580;2023-05-10T00:30:59;13.00;99.90
52030;DHT22;38043;53.224;6.580;2023-05-10T00:33:24;12.90;99.90
52030;DHT22;38043;53.224;6.580;2023-05-10T00:35:50;12.90;99.90
52030;DHT22;38043;53.224;6.580;2023-05-10T00:38:15;12.90;99.90
52030;DHT22;38043;53.224;6.580;2023-05-10T00:40:41;12.90;99.90
52030;DHT22;38043;53.224;6.580;2023-05-10T00:43:06;12.90;99.90
52030;DHT22;38043;53.224;6.580;2023-05-10T00:45:32;12.80;99.90
52030;DHT22;38043;53.224;6.580;2023-05-10T00:47:59;12.80;99.90
52030;DHT22;38043;53.224;6.580;2023-05-10T00:50:25;12.80;99.90
52030;DHT22;38043;53.224;6.580;2023-05-10T00:52:51;12.80;99.90
52030;DHT22;38043;53.224;6.580;2023-05-10T00:55:24;12.80;99.90
52030;DHT22;38043;53.224;6.580;2023-05-10T00:57:51;12.80;99.90
52030;DHT22;38043;53.224;6.580;2023-05-10T01:00:17;12.80;99.90
52030;DHT22;38043;53.224;6.580;2023-05-10T01:02:46;12.70;99.90
52030;DHT22;38043;53.224;6.580;2023-05-10T01:05:12;12.70;99.90
52030;DHT22;38043;53.224;6.580;2023-05-10T01:07:38;12.70;99.90
52030;DHT22;38043;53.224;6.580;2023-05-10T01:10:04;12.60;99.90
52030;DHT22;38043;53.224;6.580;2023-05-10T01:12:30;12.60;99.90
52030;DHT22;38043;53.224;6.580;2023-05-10T01:14:55;12.60;99.90
52030;DHT22;38043;53.224;6.580;2023-05-10T01:17:21;12.60;99.90
52030;DHT22;38043;53.224;6.580;2023-05-10T01:19:47;12.50;99.90
52030;DHT22;38043;53.224;6.580;2023-05-10T01:22:31;12.50;99.90
52030;DHT22;38043;53.224;6.580;2023-05-10T01:27:47;12.50;99.90
52030;DHT22;38043;53.224;6.580;2023-05-10T01:35:17;12.50;99.90
52030;DHT22;38043;53.224;6.580;2023-05-10T01:37:52;12.50;99.90
52030;DHT22;38043;53.224;6.580;2023-05-10T01:40:39;12.50;99.90
52030;DHT22;38043;53.224;6.580;2023-05-10T01:43:08;12.50;99.90
52030;DHT22;38043;53.224;6.580;2023-05-10T01:48:36;12.50;99.90
52030;DHT22;38043;53.224;6.580;2023-05-10T01:51:03;12.40;99.90
52030;DHT22;38043;53.224;6.580;2023-05-10T01:53:29;12.40;99.90
52030;DHT22;38043;53.224;6.580;2023-05-10T01:55:56;12.40;99.90
52030;DHT22;38043;53.224;6.580;2023-05-10T01:58:28;12.30;99.90
52030;DHT22;38043;53.224;6.580;2023-05-10T02:00:54;12.40;99.90
52030;DHT22;38043;53.224;6.580;2023-05-10T02:03:22;12.40;99.90
52030;DHT22;38043;53.224;6.580;2023-05-10T02:05:48;12.30;99.90
52030;DHT22;38043;53.224;6.580;2023-05-10T02:08:14;12.30;99.90
52030;DHT22;38043;53.224;6.580;2023-05-10T02:10:42;12.30;99.90
52030;DHT22;38043;53.224;6.580;2023-05-10T02:13:08;12.30;99.90
52030;DHT22;38043;53.224;6.580;2023-05-10T02:15:35;12.40;99.90
52030;DHT22;38043;53.224;6.580;2023-05-10T02:18:02;12.40;99.90
52030;DHT22;38043;53.224;6.580;2023-05-10T02:20:29;12.30;99.90
52030;DHT22;38043;53.224;6.580;2023-05-10T02:22:56;12.30;99.90
52030;DHT22;38043;53.224;6.580;2023-05-10T02:25:23;12.30;99.90
52030;DHT22;38043;53.224;6.580;2023-05-10T02:27:48;12.30;99.90
52030;DHT22;38043;53.224;6.580;2023-05-10T02:30:15;12.30;99.90
52030;DHT22;38043;53.224;6.580;2023-05-10T02:32:41;12.30;99.90
52030;DHT22;38043;53.224;6.580;2023-05-10T02:35:08;12.30;99.90
52030;DHT22;38043;53.224;6.580;2023-05-10T02:37:35;12.30;99.90
52030;DHT22;38043;53.224;6.580;2023-05-10T02:40:02;12.30;99.90
52030;DHT22;38043;53.224;6.580;2023-05-10T02:42:29;12.30;99.90
52030;DHT22;38043;53.224;6.580;2023-05-10T02:44:56;12.30;99.90
52030;DHT22;38043;53.224;6.580;2023-05-10T02:47:24;12.30;99.90
52030;DHT22;38043;53.224;6.580;2023-05-10T02:49:50;12.40;99.90
52030;DHT22;38043;53.224;6.580;2023-05-10T02:52:16;12.30;99.90
52030;DHT22;38043;53.224;6.580;2023-05-10T02:54:45;12.30;99.90
52030;DHT22;38043;53.224;6.580;2023-05-10T02:57:11;12.40;99.90
52030;DHT22;38043;53.224;6.580;2023-05-10T02:59:37;12.30;99.90
52030;DHT22;38043;53.224;6.580;2023-05-10T03:02:03;12.30;99.90
52030;DHT22;38043;53.224;6.580;2023-05-10T03:04:29;12.30;99.90
52030;DHT22;38043;53.224;6.580;2023-05-10T03:06:54;12.40;99.90
52030;DHT22;38043;53.224;6.580;2023-05-10T03:09:20;12.40;99.90
52030;DHT22;38043;53.224;6.580;2023-05-10T03:14:24;12.30;99.90
52030;DHT22;38043;53.224;6.580;2023-05-10T03:17:04;12.30;99.90
52030;DHT22;38043;53.224;6.580;2023-05-10T03:19:34;12.30;99.90
52030;DHT22;38043;53.224;6.580;2023-05-10T03:22:04;12.30;99.90
52030;DHT22;38043;53.224;6.580;2023-05-10T03:24:33;12.30;99.90
52030;DHT22;38043;53.224;6.580;2023-05-10T03:27:00;12.30;99.90
52030;DHT22;38043;53.224;6.580;2023-05-10T03:29:28;12.30;99.90
52030;DHT22;38043;53.224;6.580;2023-05-10T03:31:54;12.30;99.90
52030;DHT22;38043;53.224;6.580;2023-05-10T03:34:23;12.30;99.90
52030;DHT22;38043;53.224;6.580;2023-05-10T03:36:49;12.30;99.90
52030;DHT22;38043;53.224;6.580;2023-05-10T03:39:15;12.30;99.90
52030;DHT22;38043;53.224;6.580;2023-05-10T03:41:40;12.30;99.90
52030;DHT22;38043;53.224;6.580;2023-05-10T03:44:06;12.30;99.90
52030;DHT22;38043;53.224;6.580;2023-05-10T03:46:32;12.30;99.90
52030;DHT22;38043;53.224;6.580;2023-05-10T03:48:57;12.40;99.90
52030;DHT22;38043;53.224;6.580;2023-05-10T03:51:23;12.30;99.90
52030;DHT22;38043;53.224;6.580;2023-05-10T03:53:50;12.30;99.90
52030;DHT22;38043;53.224;6.580;2023-05-10T03:56:16;12.30;99.90
52030;DHT22;38043;53.224;6.580;2023-05-10T03:58:41;12.30;99.90
52030;DHT22;38043;53.224;6.580;2023-05-10T04:01:06;12.20;99.90
52030;DHT22;38043;53.224;6.580;2023-05-10T04:03:32;12.30;99.90
52030;DHT22;38043;53.224;6.580;2023-05-10T04:05:58;12.30;99.90
52030;DHT22;38043;53.224;6.580;2023-05-10T04:08:24;12.30;99.90
52030;DHT22;38043;53.224;6.580;2023-05-10T04:10:49;12.40;99.90
52030;DHT22;38043;53.224;6.580;2023-05-10T04:13:15;12.30;99.90
52030;DHT22;38043;53.224;6.580;2023-05-10T04:15:40;12.30;99.90
52030;DHT22;38043;53.224;6.580;2023-05-10T04:18:06;12.30;99.90
52030;DHT22;38043;53.224;6.580;2023-05-10T04:20:32;12.30;99.90
52030;DHT22;38043;53.224;6.580;2023-05-10T04:22:57;12.10;99.90
52030;DHT22;38043;53.224;6.580;2023-05-10T04:25:23;12.20;99.90
52030;DHT22;38043;53.224;6.580;2023-05-10T04:27:49;12.20;99.90
52030;DHT22;38043;53.224;6.580;2023-05-10T04:30:14;12.20;99.90
52030;DHT22;38043;53.224;6.580;2023-05-10T04:32:40;12.20;99.90
52030;DHT22;38043;53.224;6.580;2023-05-10T04:35:05;12.10;99.90
52030;DHT22;38043;53.224;6.580;2023-05-10T04:37:31;12.10;99.90
52030;DHT22;38043;53.224;6.580;2023-05-10T04:39:56;12.10;99.90
52030;DHT22;38043;53.224;6.580;2023-05-10T04:42:22;12.10;99.90
52030;DHT22;38043;53.224;6.580;2023-05-10T04:44:48;12.10;99.90
52030;DHT22;38043;53.224;6.580;2023-05-10T04:47:13;12.10;99.90
52030;DHT22;38043;53.224;6.580;2023-05-10T04:49:39;12.00;99.90
52030;DHT22;38043;53.224;6.580;2023-05-10T04:52:04;12.10;99.90
52030;DHT22;38043;53.224;6.580;2023-05-10T04:54:30;12.00;99.90
52030;DHT22;38043;53.224;6.580;2023-05-10T04:56:55;12.10;99.90
52030;DHT22;38043;53.224;6.580;2023-05-10T04:59:21;12.10;99.90
52030;DHT22;38043;53.224;6.580;2023-05-10T05:01:46;12.10;99.90
52030;DHT22;38043;53.224;6.580;2023-05-10T05:04:12;12.10;99.90
52030;DHT22;38043;53.224;6.580;2023-05-10T05:06:38;12.10;99.90
52030;DHT22;38043;53.224;6.580;2023-05-10T05:09:03;12.10;99.90
52030;DHT22;38043;53.224;6.580;2023-05-10T05:11:29;12.10;99.90
52030;DHT22;38043;53.224;6.580;2023-05-10T05:13:55;12.10;99.90
52030;DHT22;38043;53.224;6.580;2023-05-10T05:16:20;11.90;99.90
52030;DHT22;38043;53.224;6.580;2023-05-10T05:18:46;12.10;99.90
52030;DHT22;38043;53.224;6.580;2023-05-10T05:21:15;12.00;99.90
52030;DHT22;38043;53.224;6.580;2023-05-10T05:23:41;12.10;99.90
52030;DHT22;38043;53.224;6.580;2023-05-10T05:26:07;12.10;99.90
52030;DHT22;38043;53.224;6.580;2023-05-10T05:28:32;12.10;99.90
52030;DHT22;38043;53.224;6.580;2023-05-10T05:31:02;12.20;99.90
52030;DHT22;38043;53.224;6.580;2023-05-10T05:33:28;12.20;99.90
52030;DHT22;38043;53.224;6.580;2023-05-10T05:35:53;12.20;99.90
52030;DHT22;38043;53.224;6.580;2023-05-10T05:38:19;12.20;99.90
52030;DHT22;38043;53.224;6.580;2023-05-10T05:40:45;12.20;99.90
52030;DHT22;38043;53.224;6.580;2023-05-10T05:43:10;12.20;99.90
52030;DHT22;38043;53.224;6.580;2023-05-10T05:45:36;12.20;99.90
52030;DHT22;38043;53.224;6.580;2023-05-10T05:48:02;12.20;99.90
52030;DHT22;38043;53.224;6.580;2023-05-10T05:50:27;12.20;99.90
52030;DHT22;38043;53.224;6.580;2023-05-10T05:52:53;12.20;99.90
52030;DHT22;38043;53.224;6.580;2023-05-10T05:55:18;12.20;99.90
52030;DHT22;38043;53.224;6.580;2023-05-10T05:57:44;12.20;99.90
52030;DHT22;38043;53.224;6.580;2023-05-10T06:00:10;12.20;99.90
52030;DHT22;38043;53.224;6.580;2023-05-10T06:02:35;12.20;99.90
52030;DHT22;38043;53.224;6.580;2023-05-10T06:05:01;12.20;99.90
52030;DHT22;38043;53.224;6.580;2023-05-10T06:07:27;12.20;99.90
52030;DHT22;38043;53.224;6.580;2023-05-10T06:09:53;12.20;99.90
52030;DHT22;38043;53.224;6.580;2023-05-10T06:12:18;12.20;99.90
52030;DHT22;38043;53.224;6.580;2023-05-10T06:14:44;12.30;99.90
52030;DHT22;38043;53.224;6.580;2023-05-10T06:17:09;12.20;99.90
52030;DHT22;38043;53.224;6.580;2023-05-10T06:19:35;12.20;99.90
52030;DHT22;38043;53.224;6.580;2023-05-10T06:22:02;12.30;99.90
52030;DHT22;38043;53.224;6.580;2023-05-10T06:24:27;12.30;99.90
52030;DHT22;38043;53.224;6.580;2023-05-10T06:26:53;12.30;99.90
52030;DHT22;38043;53.224;6.580;2023-05-10T06:29:18;12.30;99.90
52030;DHT22;38043;53.224;6.580;2023-05-10T06:31:44;12.30;99.90
52030;DHT22;38043;53.224;6.580;2023-05-10T06:34:09;12.20;99.90
52030;DHT22;38043;53.224;6.580;2023-05-10T06:36:37;12.30;99.90
52030;DHT22;38043;53.224;6.580;2023-05-10T06:39:02;12.30;99.90
52030;DHT22;38043;53.224;6.580;2023-05-10T06:41:28;12.20;99.90
52030;DHT22;38043;53.224;6.580;2023-05-10T06:43:54;12.20;99.90
52030;DHT22;38043;53.224;6.580;2023-05-10T06:46:19;12.20;99.90
52030;DHT22;38043;53.224;6.580;2023-05-10T06:48:45;12.10;99.90
52030;DHT22;38043;53.224;6.580;2023-05-10T06:51:10;12.10;99.90
52030;DHT22;38043;53.224;6.580;2023-05-10T06:53:36;12.10;99.90
52030;DHT22;38043;53.224;6.580;2023-05-10T06:56:01;12.10;99.90
52030;DHT22;38043;53.224;6.580;2023-05-10T06:58:28;12.10;99.90
52030;DHT22;38043;53.224;6.580;2023-05-10T07:00:53;12.00;99.90
52030;DHT22;38043;53.224;6.580;2023-05-10T07:03:19;12.10;99.90
52030;DHT22;38043;53.224;6.580;2023-05-10T07:05:44;12.00;99.90
52030;DHT22;38043;53.224;6.580;2023-05-10T07:08:10;12.00;99.90
52030;DHT22;38043;53.224;6.580;2023-05-10T07:10:35;12.00;99.90
52030;DHT22;38043;53.224;6.580;2023-05-10T07:13:01;12.00;99.90
52030;DHT22;38043;53.224;6.580;2023-05-10T07:15:26;12.10;99.90
52030;DHT22;38043;53.224;6.580;2023-05-10T07:17:55;12.00;99.90
52030;DHT22;38043;53.224;6.580;2023-05-10T07:20:21;12.00;99.90
52030;DHT22;38043;53.224;6.580;2023-05-10T07:22:46;12.10;99.90
52030;DHT22;38043;53.224;6.580;2023-05-10T07:25:12;12.10;99.90
52030;DHT22;38043;53.224;6.580;2023-05-10T07:27:37;12.10;99.90
52030;DHT22;38043;53.224;6.580;2023-05-10T07:30:03;12.10;99.90
52030;DHT22;38043;53.224;6.580;2023-05-10T07:32:28;12.10;99.90
52030;DHT22;38043;53.224;6.580;2023-05-10T07:34:54;12.10;99.90
52030;DHT22;38043;53.224;6.580;2023-05-10T07:37:19;12.20;99.90
52030;DHT22;38043;53.224;6.580;2023-05-10T07:39:45;12.30;99.90
52030;DHT22;38043;53.224;6.580;2023-05-10T07:42:10;12.30;99.90
52030;DHT22;38043;53.224;6.580;2023-05-10T07:44:36;12.30;99.90
52030;DHT22;38043;53.224;6.580;2023-05-10T07:47:01;12.30;99.90
52030;DHT22;38043;53.224;6.580;2023-05-10T07:49:27;12.40;99.90
52030;DHT22;38043;53.224;6.580;2023-05-10T07:51:52;12.40;99.90
52030;DHT22;38043;53.224;6.580;2023-05-10T07:54:18;12.50;99.90
52030;DHT22;38043;53.224;6.580;2023-05-10T07:56:43;12.50;99.90
52030;DHT22;38043;53.224;6.580;2023-05-10T07:59:18;12.50;99.90
52030;DHT22;38043;53.224;6.580;2023-05-10T08:01:43;12.50;99.90
52030;DHT22;38043;53.224;6.580;2023-05-10T08:04:09;12.50;99.90
52030;DHT22;38043;53.224;6.580;2023-05-10T08:06:35;12.50;99.90
52030;DHT22;38043;53.224;6.580;2023-05-10T08:09:00;12.40;99.90
52030;DHT22;38043;53.224;6.580;2023-05-10T08:11:26;12.40;99.90
52030;DHT22;38043;53.224;6.580;2023-05-10T08:13:53;12.40;99.90
52030;DHT22;38043;53.224;6.580;2023-05-10T08:16:18;12.40;99.90
52030;DHT22;38043;53.224;6.580;2023-05-10T08:18:44;12.40;99.90
52030;DHT22;38043;53.224;6.580;2023-05-10T08:21:12;12.40;99.90
52030;DHT22;38043;53.224;6.580;2023-05-10T08:23:38;12.40;99.90
52030;DHT22;38043;53.224;6.580;2023-05-10T08:26:03;12.30;99.90
52030;DHT22;38043;53.224;6.580;2023-05-10T08:28:29;12.40;99.90
52030;DHT22;38043;53.224;6.580;2023-05-10T08:30:55;12.40;99.90
52030;DHT22;38043;53.224;6.580;2023-05-10T08:33:21;12.30;99.90
52030;DHT22;38043;53.224;6.580;2023-05-10T08:35:46;12.40;99.90
52030;DHT22;38043;53.224;6.580;2023-05-10T08:38:12;12.40;99.90
52030;DHT22;38043;53.224;6.580;2023-05-10T08:40:38;12.40;99.90
52030;DHT22;38043;53.224;6.580;2023-05-10T08:43:07;12.40;99.90
52030;DHT22;38043;53.224;6.580;2023-05-10T08:45:33;12.40;99.90
52030;DHT22;38043;53.224;6.580;2023-05-10T08:48:01;12.40;99.90
52030;DHT22;38043;53.224;6.580;2023-05-10T08:50:26;12.50;99.90
52030;DHT22;38043;53.224;6.580;2023-05-10T08:52:52;12.40;99.90
52030;DHT22;38043;53.224;6.580;2023-05-10T08:55:18;12.50;99.90
52030;DHT22;38043;53.224;6.580;2023-05-10T08:57:44;12.50;99.90
52030;DHT22;38043;53.224;6.580;2023-05-10T09:00:10;12.50;99.90
52030;DHT22;38043;53.224;6.580;2023-05-10T09:02:36;12.50;99.90
52030;DHT22;38043;53.224;6.580;2023-05-10T09:05:02;12.50;99.90
52030;DHT22;38043;53.224;6.580;2023-05-10T09:07:29;12.50;99.90
52030;DHT22;38043;53.224;6.580;2023-05-10T09:09:55;12.50;99.90
52030;DHT22;38043;53.224;6.580;2023-05-10T09:12:22;12.60;99.90
52030;DHT22;38043;53.224;6.580;2023-05-10T09:14:48;12.60;99.90
52030;DHT22;38043;53.224;6.580;2023-05-10T09:17:15;12.60;99.90
52030;DHT22;38043;53.224;6.580;2023-05-10T09:19:42;12.60;99.90
52030;DHT22;38043;53.224;6.580;2023-05-10T09:22:09;12.60;99.90
52030;DHT22;38043;53.224;6.580;2023-05-10T09:24:35;12.70;99.90
52030;DHT22;38043;53.224;6.580;2023-05-10T09:27:02;12.60;99.90
52030;DHT22;38043;53.224;6.580;2023-05-10T09:29:38;12.70;99.90
52030;DHT22;38043;53.224;6.580;2023-05-10T09:32:04;12.80;99.90
52030;DHT22;38043;53.224;6.580;2023-05-10T09:34:29;12.90;99.90
52030;DHT22;38043;53.224;6.580;2023-05-10T09:36:57;13.10;99.90
52030;DHT22;38043;53.224;6.580;2023-05-10T09:39:32;13.20;99.90
52030;DHT22;38043;53.224;6.580;2023-05-10T09:41:59;13.30;99.90
52030;DHT22;38043;53.224;6.580;2023-05-10T09:44:26;13.30;99.90
52030;DHT22;38043;53.224;6.580;2023-05-10T09:46:51;13.40;99.90
52030;DHT22;38043;53.224;6.580;2023-05-10T09:49:18;13.40;99.90
52030;DHT22;38043;53.224;6.580;2023-05-10T09:51:44;13.40;99.90
52030;DHT22;38043;53.224;6.580;2023-05-10T09:56:36;13.50;99.90
52030;DHT22;38043;53.224;6.580;2023-05-10T09:59:04;13.60;99.90
52030;DHT22;38043;53.224;6.580;2023-05-10T10:01:30;13.60;99.90
52030;DHT22;38043;53.224;6.580;2023-05-10T10:03:56;13.60;99.90
52030;DHT22;38043;53.224;6.580;2023-05-10T10:06:23;13.60;99.90
52030;DHT22;38043;53.224;6.580;2023-05-10T10:08:49;13.60;99.90
52030;DHT22;38043;53.224;6.580;2023-05-10T10:11:15;13.60;99.90
52030;DHT22;38043;53.224;6.580;2023-05-10T10:13:41;13.70;99.90
52030;DHT22;38043;53.224;6.580;2023-05-10T10:16:07;13.90;99.90
52030;DHT22;38043;53.224;6.580;2023-05-10T10:18:33;14.00;99.90
52030;DHT22;38043;53.224;6.580;2023-05-10T10:20:59;14.30;99.90
52030;DHT22;38043;53.224;6.580;2023-05-10T10:23:25;14.30;99.90
52030;DHT22;38043;53.224;6.580;2023-05-10T10:25:50;14.30;99.90
52030;DHT22;38043;53.224;6.580;2023-05-10T10:30:43;14.40;99.90
52030;DHT22;38043;53.224;6.580;2023-05-10T10:35:55;14.40;99.90
52030;DHT22;38043;53.224;6.580;2023-05-10T10:38:23;14.30;99.90
52030;DHT22;38043;53.224;6.580;2023-05-10T10:40:48;14.40;99.90
52030;DHT22;38043;53.224;6.580;2023-05-10T10:43:27;14.40;99.90
52030;DHT22;38043;53.224;6.580;2023-05-10T10:48:40;14.50;99.90
52030;DHT22;38043;53.224;6.580;2023-05-10T10:51:06;14.60;99.90
52030;DHT22;38043;53.224;6.580;2023-05-10T10:53:32;14.70;99.90
52030;DHT22;38043;53.224;6.580;2023-05-10T10:56:05;14.80;99.90
52030;DHT22;38043;53.224;6.580;2023-05-10T10:58:33;14.70;99.90
52030;DHT22;38043;53.224;6.580;2023-05-10T11:01:12;14.70;99.90
52030;DHT22;38043;53.224;6.580;2023-05-10T11:03:37;14.70;99.90
52030;DHT22;38043;53.224;6.580;2023-05-10T11:06:03;14.70;99.90
52030;DHT22;38043;53.224;6.580;2023-05-10T11:08:29;14.70;99.90
52030;DHT22;38043;53.224;6.580;2023-05-10T11:15:59;14.90;99.90
52030;DHT22;38043;53.224;6.580;2023-05-10T11:18:36;14.90;99.90
52030;DHT22;38043;53.224;6.580;2023-05-10T11:21:01;14.80;99.90
52030;DHT22;38043;53.224;6.580;2023-05-10T11:26:09;15.00;99.90
52030;DHT22;38043;53.224;6.580;2023-05-10T11:28:40;15.00;99.90
52030;DHT22;38043;53.224;6.580;2023-05-10T11:31:06;15.00;99.90
52030;DHT22;38043;53.224;6.580;2023-05-10T11:33:41;15.10;99.90
52030;DHT22;38043;53.224;6.580;2023-05-10T11:36:10;15.10;99.90
52030;DHT22;38043;53.224;6.580;2023-05-10T11:38:36;15.20;99.90
52030;DHT22;38043;53.224;6.580;2023-05-10T11:41:02;15.00;99.90
52030;DHT22;38043;53.224;6.580;2023-05-10T11:43:27;15.00;99.90
52030;DHT22;38043;53.224;6.580;2023-05-10T11:45:56;15.00;99.90
52030;DHT22;38043;53.224;6.580;2023-05-10T11:48:21;15.00;99.90
52030;DHT22;38043;53.224;6.580;2023-05-10T11:50:49;15.00;99.90
52030;DHT22;38043;53.224;6.580;2023-05-10T11:53:15;15.10;99.90
52030;DHT22;38043;53.224;6.580;2023-05-10T11:55:48;15.10;99.90
52030;DHT22;38043;53.224;6.580;2023-05-10T11:58:14;15.10;99.90
52030;DHT22;38043;53.224;6.580;2023-05-10T12:00:39;15.00;99.90
52030;DHT22;38043;53.224;6.580;2023-05-10T12:03:05;15.00;99.90
52030;DHT22;38043;53.224;6.580;2023-05-10T12:05:33;15.10;99.90
52030;DHT22;38043;53.224;6.580;2023-05-10T12:08:15;15.00;99.90
52030;DHT22;38043;53.224;6.580;2023-05-10T12:10:41;14.90;99.90
52030;DHT22;38043;53.224;6.580;2023-05-10T12:13:13;14.80;99.90
52030;DHT22;38043;53.224;6.580;2023-05-10T12:15:39;14.80;99.90
52030;DHT22;38043;53.224;6.580;2023-05-10T12:18:05;14.80;99.90
52030;DHT22;38043;53.224;6.580;2023-05-10T12:20:31;14.80;99.90
52030;DHT22;38043;53.224;6.580;2023-05-10T12:22:57;14.70;99.90
52030;DHT22;38043;53.224;6.580;2023-05-10T12:25:24;14.70;99.90
52030;DHT22;38043;53.224;6.580;2023-05-10T12:27:55;14.70;99.90
52030;DHT22;38043;53.224;6.580;2023-05-10T12:30:25;14.60;99.90
52030;DHT22;38043;53.224;6.580;2023-05-10T12:32:51;14.60;99.90
52030;DHT22;38043;53.224;6.580;2023-05-10T12:35:17;14.60;99.90
52030;DHT22;38043;53.224;6.580;2023-05-10T12:37:43;14.50;99.90
52030;DHT22;38043;53.224;6.580;2023-05-10T12:40:09;14.50;99.90
52030;DHT22;38043;53.224;6.580;2023-05-10T12:42:36;14.50;99.90
52030;DHT22;38043;53.224;6.580;2023-05-10T12:45:02;14.50;99.90
52030;DHT22;38043;53.224;6.580;2023-05-10T12:47:28;14.50;99.90
52030;DHT22;38043;53.224;6.580;2023-05-10T12:49:55;14.60;99.90
52030;DHT22;38043;53.224;6.580;2023-05-10T12:52:21;14.60;99.90
52030;DHT22;38043;53.224;6.580;2023-05-10T12:54:46;14.60;99.90
52030;DHT22;38043;53.224;6.580;2023-05-10T12:57:12;14.70;99.90
52030;DHT22;38043;53.224;6.580;2023-05-10T12:59:38;14.60;99.90
52030;DHT22;38043;53.224;6.580;2023-05-10T13:02:04;14.60;99.90
52030;DHT22;38043;53.224;6.580;2023-05-10T13:04:29;14.60;99.90
52030;DHT22;38043;53.224;6.580;2023-05-10T13:06:55;14.60;99.90
52030;DHT22;38043;53.224;6.580;2023-05-10T13:09:24;14.60;99.90
52030;DHT22;38043;53.224;6.580;2023-05-10T13:11:50;14.70;99.90
52030;DHT22;38043;53.224;6.580;2023-05-10T13:14:16;14.70;99.90
52030;DHT22;38043;53.224;6.580;2023-05-10T13:16:41;14.80;99.90
52030;DHT22;38043;53.224;6.580;2023-05-10T13:19:07;14.80;99.90
52030;DHT22;38043;53.224;6.580;2023-05-10T13:21:32;14.80;99.90
52030;DHT22;38043;53.224;6.580;2023-05-10T13:23:58;14.90;99.90
52030;DHT22;38043;53.224;6.580;2023-05-10T13:26:24;14.80;99.90
52030;DHT22;38043;53.224;6.580;2023-05-10T13:28:50;14.80;99.90
52030;DHT22;38043;53.224;6.580;2023-05-10T13:31:16;14.90;99.90
52030;DHT22;38043;53.224;6.580;2023-05-10T13:33:42;14.80;99.90
52030;DHT22;38043;53.224;6.580;2023-05-10T13:36:07;14.80;99.90
52030;DHT22;38043;53.224;6.580;2023-05-10T13:38:33;14.80;99.90
52030;DHT22;38043;53.224;6.580;2023-05-10T13:40:58;14.80;99.90
52030;DHT22;38043;53.224;6.580;2023-05-10T13:43:24;14.80;99.90
52030;DHT22;38043;53.224;6.580;2023-05-10T13:45:49;14.80;99.90
52030;DHT22;38043;53.224;6.580;2023-05-10T13:48:15;14.80;99.90
52030;DHT22;38043;53.224;6.580;2023-05-10T13:50:41;14.80;99.90
52030;DHT22;38043;53.224;6.580;2023-05-10T13:53:06;14.70;99.90
52030;DHT22;38043;53.224;6.580;2023-05-10T13:55:32;14.60;99.90
52030;DHT22;38043;53.224;6.580;2023-05-10T13:57:57;14.70;99.90
52030;DHT22;38043;53.224;6.580;2023-05-10T14:00:23;14.60;99.90
52030;DHT22;38043;53.224;6.580;2023-05-10T14:02:48;14.70;99.90
52030;DHT22;38043;53.224;6.580;2023-05-10T14:05:14;14.70;99.90
52030;DHT22;38043;53.224;6.580;2023-05-10T14:07:39;14.70;99.90
52030;DHT22;38043;53.224;6.580;2023-05-10T14:10:05;14.70;99.90
52030;DHT22;38043;53.224;6.580;2023-05-10T14:12:31;14.80;99.90
52030;DHT22;38043;53.224;6.580;2023-05-10T14:14:56;14.80;99.90
52030;DHT22;38043;53.224;6.580;2023-05-10T14:17:23;14.80;99.90
52030;DHT22;38043;53.224;6.580;2023-05-10T14:19:48;14.80;99.90
52030;DHT22;38043;53.224;6.580;2023-05-10T14:22:14;14.90;99.90
52030;DHT22;38043;53.224;6.580;2023-05-10T14:24:40;14.90;99.90
52030;DHT22;38043;53.224;6.580;2023-05-10T14:27:05;14.90;99.90
52030;DHT22;38043;53.224;6.580;2023-05-10T14:29:31;15.00;99.90
52030;DHT22;38043;53.224;6.580;2023-05-10T14:31:57;14.90;99.90
52030;DHT22;38043;53.224;6.580;2023-05-10T14:34:23;14.90;99.90
52030;DHT22;38043;53.224;6.580;2023-05-10T14:36:54;15.00;99.90
52030;DHT22;38043;53.224;6.580;2023-05-10T14:39:22;15.00;99.90
52030;DHT22;38043;53.224;6.580;2023-05-10T14:41:48;15.10;99.90
52030;DHT22;38043;53.224;6.580;2023-05-10T14:44:13;15.20;99.90
52030;DHT22;38043;53.224;6.580;2023-05-10T14:46:40;15.30;99.90
52030;DHT22;38043;53.224;6.580;2023-05-10T14:49:07;15.30;99.90
52030;DHT22;38043;53.224;6.580;2023-05-10T14:51:32;15.50;99.90
52030;DHT22;38043;53.224;6.580;2023-05-10T14:54:00;15.70;99.90
52030;DHT22;38043;53.224;6.580;2023-05-10T14:56:26;15.80;99.90
52030;DHT22;38043;53.224;6.580;2023-05-10T14:58:51;16.00;99.90
52030;DHT22;38043;53.224;6.580;2023-05-10T15:01:18;16.00;99.90
52030;DHT22;38043;53.224;6.580;2023-05-10T15:03:47;16.00;99.90
52030;DHT22;38043;53.224;6.580;2023-05-10T15:06:13;16.10;99.90
52030;DHT22;38043;53.224;6.580;2023-05-10T15:08:42;16.10;99.90
52030;DHT22;38043;53.224;6.580;2023-05-10T15:11:08;16.00;99.90
52030;DHT22;38043;53.224;6.580;2023-05-10T15:13:34;16.00;99.90
52030;DHT22;38043;53.224;6.580;2023-05-10T15:15:59;16.00;99.90
52030;DHT22;38043;53.224;6.580;2023-05-10T15:18:25;16.00;99.90
52030;DHT22;38043;53.224;6.580;2023-05-10T15:20:50;15.90;99.90
52030;DHT22;38043;53.224;6.580;2023-05-10T15:23:16;15.90;99.90
52030;DHT22;38043;53.224;6.580;2023-05-10T15:25:46;15.90;99.90
52030;DHT22;38043;53.224;6.580;2023-05-10T15:28:11;15.80;99.90
52030;DHT22;38043;53.224;6.580;2023-05-10T15:30:37;15.80;99.90
52030;DHT22;38043;53.224;6.580;2023-05-10T15:33:03;15.70;99.90
52030;DHT22;38043;53.224;6.580;2023-05-10T15:35:28;15.80;99.90
52030;DHT22;38043;53.224;6.580;2023-05-10T15:37:54;15.70;99.90
52030;DHT22;38043;53.224;6.580;2023-05-10T15:40:19;15.60;99.90
52030;DHT22;38043;53.224;6.580;2023-05-10T15:42:45;15.60;99.90
52030;DHT22;38043;53.224;6.580;2023-05-10T15:45:10;15.50;99.90
52030;DHT22;38043;53.224;6.580;2023-05-10T15:47:36;15.30;99.90
52030;DHT22;38043;53.224;6.580;2023-05-10T15:50:05;15.20;99.90
52030;DHT22;38043;53.224;6.580;2023-05-10T15:52:30;15.10;99.90
52030;DHT22;38043;53.224;6.580;2023-05-10T15:54:56;15.00;99.90
52030;DHT22;38043;53.224;6.580;2023-05-10T15:57:22;15.00;99.90